sensor_id;sensor_type;location;lat;lon;timestamp;P1;durP1;ratioP1;P2;durP2;ratioP2
20138;SDS011;10230;51.502;10.800;2022-11-14T00:02:19;24.23;;;11.23;;
20138;SDS011;10230;51.502;10.800;2022-11-14T00:04:45;29.90;;;12.50;;
20138;SDS011;10230;51.502;10.800;2022-11-14T00:07:12;24.43;;;12.27;;
20138;SDS011;10230;51.502;10.800;2022-11-14T00:09:38;22.53;;;10.83;;
20138;SDS011;10230;51.502;10.800;2022-11-14T00:12:06;24.40;;;11.03;;
20138;SDS011;10230;51.502;10.800;2022-11-14T00:14:33;22.53;;;10.37;;
20138;SDS011;10230;51.502;10.800;2022-11-14T00:16:58;22.30;;;11.33;;
20138;SDS011;10230;51.502;10.800;2022-11-14T00:19:24;18.97;;;9.33;;
20138;SDS011;10230;51.502;10.800;2022-11-14T00:21:50;21.10;;;9.43;;
20138;SDS011;10230;51.502;10.800;2022-11-14T00:24:17;20.03;;;10.53;;
20138;SDS011;10230;51.502;10.800;2022-11-14T00:26:43;21.67;;;10.50;;
20138;SDS011;10230;51.502;10.800;2022-11-14T00:29:10;20.20;;;9.13;;
20138;SDS011;10230;51.502;10.800;2022-11-14T00:31:36;20.03;;;8.63;;
20138;SDS011;10230;51.502;10.800;2022-11-14T00:34:02;21.47;;;9.07;;
20138;SDS011;10230;51.502;10.800;2022-11-14T00:36:27;17.37;;;9.27;;
20138;SDS011;10230;51.502;10.800;2022-11-14T00:38:53;18.70;;;8.50;;
20138;SDS011;10230;51.502;10.800;2022-11-14T00:41:19;20.13;;;9.37;;
20138;SDS011;10230;51.502;10.800;2022-11-14T00:43:45;21.60;;;8.87;;
20138;SDS011;10230;51.502;10.800;2022-11-14T00:46:11;20.13;;;9.13;;
20138;SDS011;10230;51.502;10.800;2022-11-14T00:48:37;21.97;;;10.13;;
20138;SDS011;10230;51.502;10.800;2022-11-14T00:51:02;18.77;;;9.13;;
20138;SDS011;10230;51.502;10.800;2022-11-14T00:53:28;23.03;;;9.70;;
20138;SDS011;10230;51.502;10.800;2022-11-14T00:55:54;19.70;;;9.17;;
20138;SDS011;10230;51.502;10.800;2022-11-14T00:58:19;25.53;;;10.37;;
20138;SDS011;10230;51.502;10.800;2022-11-14T01:00:45;23.10;;;11.57;;
20138;SDS011;10230;51.502;10.800;2022-11-14T01:03:11;21.63;;;10.47;;
20138;SDS011;10230;51.502;10.800;2022-11-14T01:05:43;22.67;;;10.00;;
20138;SDS011;10230;51.502;10.800;2022-11-14T01:08:10;20.40;;;10.37;;
20138;SDS011;10230;51.502;10.800;2022-11-14T01:10:38;16.90;;;8.17;;
20138;SDS011;10230;51.502;10.800;2022-11-14T01:13:05;22.67;;;9.63;;
20138;SDS011;10230;51.502;10.800;2022-11-14T01:15:31;18.27;;;8.30;;
20138;SDS011;10230;51.502;10.800;2022-11-14T01:17:57;19.63;;;9.77;;
20138;SDS011;10230;51.502;10.800;2022-11-14T01:20:22;20.67;;;8.40;;
20138;SDS011;10230;51.502;10.800;2022-11-14T01:22:48;25.70;;;10.57;;
20138;SDS011;10230;51.502;10.800;2022-11-14T01:25:14;19.03;;;8.27;;
20138;SDS011;10230;51.502;10.800;2022-11-14T01:27:39;20.20;;;9.10;;
20138;SDS011;10230;51.502;10.800;2022-11-14T01:30:06;18.33;;;9.87;;
20138;SDS011;10230;51.502;10.800;2022-11-14T01:32:32;19.10;;;10.10;;
20138;SDS011;10230;51.502;10.800;2022-11-14T01:34:57;17.10;;;8.40;;
20138;SDS011;10230;51.502;10.800;2022-11-14T01:37:23;21.90;;;9.27;;
20138;SDS011;10230;51.502;10.800;2022-11-14T01:39:49;17.60;;;8.63;;
20138;SDS011;10230;51.502;10.800;2022-11-14T01:42:14;16.80;;;7.00;;
20138;SDS011;10230;51.502;10.800;2022-11-14T01:44:44;15.00;;;7.53;;
20138;SDS011;10230;51.502;10.800;2022-11-14T01:47:12;19.70;;;8.87;;
20138;SDS011;10230;51.502;10.800;2022-11-14T01:49:44;19.77;;;8.90;;
20138;SDS011;10230;51.502;10.800;2022-11-14T01:52:24;16.53;;;8.50;;
20138;SDS011;10230;51.502;10.800;2022-11-14T01:54:51;16.43;;;7.90;;
20138;SDS011;10230;51.502;10.800;2022-11-14T01:57:23;17.00;;;8.20;;
20138;SDS011;10230;51.502;10.800;2022-11-14T01:59:55;17.93;;;8.93;;
20138;SDS011;10230;51.502;10.800;2022-11-14T02:02:24;15.40;;;7.70;;
20138;SDS011;10230;51.502;10.800;2022-11-14T02:05:00;16.13;;;9.07;;
20138;SDS011;10230;51.502;10.800;2022-11-14T02:07:31;15.60;;;7.40;;
20138;SDS011;10230;51.502;10.800;2022-11-14T02:10:01;15.97;;;8.13;;
20138;SDS011;10230;51.502;10.800;2022-11-14T02:12:31;16.73;;;8.40;;
20138;SDS011;10230;51.502;10.800;2022-11-14T02:14:57;14.33;;;7.77;;
20138;SDS011;10230;51.502;10.800;2022-11-14T02:17:24;14.17;;;7.53;;
20138;SDS011;10230;51.502;10.800;2022-11-14T02:19:55;16.10;;;7.67;;
20138;SDS011;10230;51.502;10.800;2022-11-14T02:22:27;13.77;;;7.73;;
20138;SDS011;10230;51.502;10.800;2022-11-14T02:24:52;14.80;;;7.63;;
20138;SDS011;10230;51.502;10.800;2022-11-14T02:27:18;15.80;;;8.47;;
20138;SDS011;10230;51.502;10.800;2022-11-14T02:29:44;14.27;;;7.40;;
20138;SDS011;10230;51.502;10.800;2022-11-14T02:32:10;17.53;;;7.33;;
20138;SDS011;10230;51.502;10.800;2022-11-14T02:34:36;13.30;;;6.57;;
20138;SDS011;10230;51.502;10.800;2022-11-14T02:37:02;14.60;;;8.33;;
20138;SDS011;10230;51.502;10.800;2022-11-14T02:39:28;15.60;;;7.13;;
20138;SDS011;10230;51.502;10.800;2022-11-14T02:41:53;14.83;;;7.80;;
20138;SDS011;10230;51.502;10.800;2022-11-14T02:44:19;13.53;;;7.90;;
20138;SDS011;10230;51.502;10.800;2022-11-14T02:46:45;13.53;;;6.90;;
20138;SDS011;10230;51.502;10.800;2022-11-14T02:49:11;13.53;;;6.60;;
20138;SDS011;10230;51.502;10.800;2022-11-14T02:51:36;13.37;;;6.37;;
20138;SDS011;10230;51.502;10.800;2022-11-14T02:54:02;13.20;;;7.83;;
20138;SDS011;10230;51.502;10.800;2022-11-14T02:56:28;13.83;;;7.93;;
20138;SDS011;10230;51.502;10.800;2022-11-14T02:58:53;16.97;;;8.97;;
20138;SDS011;10230;51.502;10.800;2022-11-14T03:01:19;14.03;;;7.17;;
20138;SDS011;10230;51.502;10.800;2022-11-14T03:03:44;15.90;;;6.40;;
20138;SDS011;10230;51.502;10.800;2022-11-14T03:06:10;12.97;;;6.50;;
20138;SDS011;10230;51.502;10.800;2022-11-14T03:08:37;12.53;;;6.73;;
20138;SDS011;10230;51.502;10.800;2022-11-14T03:11:06;13.57;;;6.90;;
20138;SDS011;10230;51.502;10.800;2022-11-14T03:13:34;12.37;;;6.13;;
20138;SDS011;10230;51.502;10.800;2022-11-14T03:16:07;12.00;;;6.97;;
20138;SDS011;10230;51.502;10.800;2022-11-14T03:18:35;11.53;;;6.07;;
20138;SDS011;10230;51.502;10.800;2022-11-14T03:21:04;15.10;;;7.10;;
20138;SDS011;10230;51.502;10.800;2022-11-14T03:23:31;13.57;;;7.27;;
20138;SDS011;10230;51.502;10.800;2022-11-14T03:25:58;13.40;;;6.83;;
20138;SDS011;10230;51.502;10.800;2022-11-14T03:28:25;15.27;;;7.60;;
20138;SDS011;10230;51.502;10.800;2022-11-14T03:30:51;17.23;;;7.37;;
20138;SDS011;10230;51.502;10.800;2022-11-14T03:33:17;13.07;;;6.50;;
20138;SDS011;10230;51.502;10.800;2022-11-14T03:35:42;16.03;;;6.80;;
20138;SDS011;10230;51.502;10.800;2022-11-14T03:38:08;15.83;;;6.50;;
20138;SDS011;10230;51.502;10.800;2022-11-14T03:40:34;15.73;;;6.73;;
20138;SDS011;10230;51.502;10.800;2022-11-14T03:43:04;13.30;;;6.90;;
20138;SDS011;10230;51.502;10.800;2022-11-14T03:45:29;11.63;;;6.80;;
20138;SDS011;10230;51.502;10.800;2022-11-14T03:47:55;11.07;;;6.40;;
20138;SDS011;10230;51.502;10.800;2022-11-14T03:50:20;16.70;;;6.87;;
20138;SDS011;10230;51.502;10.800;2022-11-14T03:52:49;12.57;;;6.43;;
20138;SDS011;10230;51.502;10.800;2022-11-14T03:55:15;20.27;;;6.57;;
20138;SDS011;10230;51.502;10.800;2022-11-14T03:57:41;13.53;;;6.73;;
20138;SDS011;10230;51.502;10.800;2022-11-14T04:00:07;10.70;;;6.00;;
20138;SDS011;10230;51.502;10.800;2022-11-14T04:02:33;11.77;;;6.23;;
20138;SDS011;10230;51.502;10.800;2022-11-14T04:04:59;26.40;;;11.97;;
20138;SDS011;10230;51.502;10.800;2022-11-14T04:07:25;15.43;;;6.90;;
20138;SDS011;10230;51.502;10.800;2022-11-14T04:09:50;12.93;;;6.43;;
20138;SDS011;10230;51.502;10.800;2022-11-14T04:12:16;9.90;;;5.17;;
20138;SDS011;10230;51.502;10.800;2022-11-14T04:14:42;11.30;;;5.70;;
20138;SDS011;10230;51.502;10.800;2022-11-14T04:17:08;8.23;;;5.27;;
20138;SDS011;10230;51.502;10.800;2022-11-14T04:19:34;9.80;;;5.77;;
20138;SDS011;10230;51.502;10.800;2022-11-14T04:22:00;9.97;;;5.47;;
20138;SDS011;10230;51.502;10.800;2022-11-14T04:24:26;12.30;;;6.57;;
20138;SDS011;10230;51.502;10.800;2022-11-14T04:26:51;12.17;;;6.77;;
20138;SDS011;10230;51.502;10.800;2022-11-14T04:29:17;10.47;;;5.87;;
20138;SDS011;10230;51.502;10.800;2022-11-14T04:31:43;10.00;;;5.27;;
20138;SDS011;10230;51.502;10.800;2022-11-14T04:34:09;10.33;;;5.47;;
20138;SDS011;10230;51.502;10.800;2022-11-14T04:36:34;11.73;;;7.47;;
20138;SDS011;10230;51.502;10.800;2022-11-14T04:39:01;14.37;;;7.03;;
20138;SDS011;10230;51.502;10.800;2022-11-14T04:41:27;15.50;;;7.97;;
20138;SDS011;10230;51.502;10.800;2022-11-14T04:43:53;10.40;;;6.23;;
20138;SDS011;10230;51.502;10.800;2022-11-14T04:46:21;10.37;;;5.43;;
20138;SDS011;10230;51.502;10.800;2022-11-14T04:48:48;11.00;;;5.77;;
20138;SDS011;10230;51.502;10.800;2022-11-14T04:51:15;15.40;;;6.63;;
20138;SDS011;10230;51.502;10.800;2022-11-14T04:53:43;11.67;;;6.03;;
20138;SDS011;10230;51.502;10.800;2022-11-14T04:56:10;13.03;;;7.17;;
20138;SDS011;10230;51.502;10.800;2022-11-14T04:58:37;17.73;;;7.43;;
20138;SDS011;10230;51.502;10.800;2022-11-14T05:01:09;12.13;;;6.20;;
20138;SDS011;10230;51.502;10.800;2022-11-14T05:03:38;13.70;;;6.47;;
20138;SDS011;10230;51.502;10.800;2022-11-14T05:06:06;15.40;;;6.17;;
20138;SDS011;10230;51.502;10.800;2022-11-14T05:08:35;14.53;;;6.70;;
20138;SDS011;10230;51.502;10.800;2022-11-14T05:11:03;14.10;;;7.77;;
20138;SDS011;10230;51.502;10.800;2022-11-14T05:13:31;14.07;;;7.07;;
20138;SDS011;10230;51.502;10.800;2022-11-14T05:15:58;11.60;;;6.63;;
20138;SDS011;10230;51.502;10.800;2022-11-14T05:18:24;12.73;;;6.37;;
20138;SDS011;10230;51.502;10.800;2022-11-14T05:20:50;11.80;;;6.43;;
20138;SDS011;10230;51.502;10.800;2022-11-14T05:23:21;12.43;;;6.77;;
20138;SDS011;10230;51.502;10.800;2022-11-14T05:25:57;15.93;;;6.87;;
20138;SDS011;10230;51.502;10.800;2022-11-14T05:28:32;15.97;;;7.20;;
20138;SDS011;10230;51.502;10.800;2022-11-14T05:33:34;10.53;;;5.63;;
20138;SDS011;10230;51.502;10.800;2022-11-14T05:36:04;14.43;;;6.93;;
20138;SDS011;10230;51.502;10.800;2022-11-14T05:38:31;13.43;;;6.13;;
20138;SDS011;10230;51.502;10.800;2022-11-14T05:40:57;13.77;;;7.30;;
20138;SDS011;10230;51.502;10.800;2022-11-14T05:43:23;17.50;;;6.73;;
20138;SDS011;10230;51.502;10.800;2022-11-14T05:45:49;16.03;;;7.40;;
20138;SDS011;10230;51.502;10.800;2022-11-14T05:48:15;17.27;;;8.53;;
20138;SDS011;10230;51.502;10.800;2022-11-14T05:50:41;17.43;;;8.53;;
20138;SDS011;10230;51.502;10.800;2022-11-14T05:53:07;21.97;;;8.23;;
20138;SDS011;10230;51.502;10.800;2022-11-14T05:55:33;19.40;;;8.67;;
20138;SDS011;10230;51.502;10.800;2022-11-14T05:57:59;21.73;;;9.93;;
20138;SDS011;10230;51.502;10.800;2022-11-14T06:00:25;18.40;;;8.80;;
20138;SDS011;10230;51.502;10.800;2022-11-14T06:02:54;17.60;;;8.37;;
20138;SDS011;10230;51.502;10.800;2022-11-14T06:05:21;19.27;;;9.30;;
20138;SDS011;10230;51.502;10.800;2022-11-14T06:07:47;16.87;;;8.13;;
20138;SDS011;10230;51.502;10.800;2022-11-14T06:10:18;18.70;;;6.80;;
20138;SDS011;10230;51.502;10.800;2022-11-14T06:12:44;15.20;;;7.43;;
20138;SDS011;10230;51.502;10.800;2022-11-14T06:15:09;16.47;;;8.10;;
20138;SDS011;10230;51.502;10.800;2022-11-14T06:17:35;17.27;;;8.63;;
20138;SDS011;10230;51.502;10.800;2022-11-14T06:20:00;16.57;;;7.67;;
20138;SDS011;10230;51.502;10.800;2022-11-14T06:22:26;19.73;;;7.97;;
20138;SDS011;10230;51.502;10.800;2022-11-14T06:24:52;16.67;;;8.03;;
20138;SDS011;10230;51.502;10.800;2022-11-14T06:27:18;15.27;;;7.93;;
20138;SDS011;10230;51.502;10.800;2022-11-14T06:29:43;15.87;;;7.60;;
20138;SDS011;10230;51.502;10.800;2022-11-14T06:32:09;16.23;;;8.07;;
20138;SDS011;10230;51.502;10.800;2022-11-14T06:34:34;17.67;;;7.70;;
20138;SDS011;10230;51.502;10.800;2022-11-14T06:37:00;16.33;;;8.50;;
20138;SDS011;10230;51.502;10.800;2022-11-14T06:39:26;14.00;;;8.10;;
20138;SDS011;10230;51.502;10.800;2022-11-14T06:41:51;18.63;;;8.13;;
20138;SDS011;10230;51.502;10.800;2022-11-14T06:44:17;16.90;;;8.80;;
20138;SDS011;10230;51.502;10.800;2022-11-14T06:46:42;17.60;;;7.77;;
20138;SDS011;10230;51.502;10.800;2022-11-14T06:49:08;12.90;;;6.83;;
20138;SDS011;10230;51.502;10.800;2022-11-14T06:51:34;16.87;;;8.47;;
20138;SDS011;10230;51.502;10.800;2022-11-14T06:54:01;17.20;;;8.53;;
20138;SDS011;10230;51.502;10.800;2022-11-14T06:56:27;16.70;;;8.90;;
20138;SDS011;10230;51.502;10.800;2022-11-14T06:58:53;16.77;;;9.03;;
20138;SDS011;10230;51.502;10.800;2022-11-14T07:01:20;18.50;;;8.93;;
20138;SDS011;10230;51.502;10.800;2022-11-14T07:03:48;15.90;;;8.53;;
20138;SDS011;10230;51.502;10.800;2022-11-14T07:06:15;26.70;;;8.63;;
20138;SDS011;10230;51.502;10.800;2022-11-14T07:08:45;15.83;;;8.33;;
20138;SDS011;10230;51.502;10.800;2022-11-14T07:11:15;17.00;;;7.63;;
20138;SDS011;10230;51.502;10.800;2022-11-14T07:16:20;17.13;;;6.50;;
20138;SDS011;10230;51.502;10.800;2022-11-14T07:18:49;15.00;;;6.87;;
20138;SDS011;10230;51.502;10.800;2022-11-14T07:21:15;16.27;;;6.47;;
20138;SDS011;10230;51.502;10.800;2022-11-14T07:23:41;15.23;;;7.00;;
20138;SDS011;10230;51.502;10.800;2022-11-14T07:26:08;14.33;;;5.97;;
20138;SDS011;10230;51.502;10.800;2022-11-14T07:28:36;13.37;;;6.43;;
20138;SDS011;10230;51.502;10.800;2022-11-14T07:31:07;14.53;;;6.47;;
20138;SDS011;10230;51.502;10.800;2022-11-14T07:33:36;16.20;;;6.93;;
20138;SDS011;10230;51.502;10.800;2022-11-14T07:36:02;18.17;;;7.00;;
20138;SDS011;10230;51.502;10.800;2022-11-14T07:38:29;15.53;;;6.63;;
20138;SDS011;10230;51.502;10.800;2022-11-14T07:40:59;17.80;;;8.33;;
20138;SDS011;10230;51.502;10.800;2022-11-14T07:43:27;15.53;;;7.67;;
20138;SDS011;10230;51.502;10.800;2022-11-14T07:45:57;17.37;;;8.30;;
20138;SDS011;10230;51.502;10.800;2022-11-14T07:48:24;17.50;;;8.40;;
20138;SDS011;10230;51.502;10.800;2022-11-14T07:50:52;22.33;;;7.97;;
20138;SDS011;10230;51.502;10.800;2022-11-14T07:53:19;19.50;;;8.57;;
20138;SDS011;10230;51.502;10.800;2022-11-14T07:55:48;19.23;;;8.07;;
20138;SDS011;10230;51.502;10.800;2022-11-14T07:58:15;19.63;;;8.80;;
20138;SDS011;10230;51.502;10.800;2022-11-14T08:00:44;14.53;;;7.87;;
20138;SDS011;10230;51.502;10.800;2022-11-14T08:03:13;16.23;;;7.17;;
20138;SDS011;10230;51.502;10.800;2022-11-14T08:05:40;17.13;;;7.97;;
20138;SDS011;10230;51.502;10.800;2022-11-14T08:08:08;15.80;;;8.33;;
20138;SDS011;10230;51.502;10.800;2022-11-14T08:10:36;17.70;;;7.73;;
20138;SDS011;10230;51.502;10.800;2022-11-14T08:13:03;20.07;;;7.90;;
20138;SDS011;10230;51.502;10.800;2022-11-14T08:15:32;15.73;;;7.87;;
20138;SDS011;10230;51.502;10.800;2022-11-14T08:17:58;19.67;;;8.03;;
20138;SDS011;10230;51.502;10.800;2022-11-14T08:20:27;18.83;;;8.37;;
20138;SDS011;10230;51.502;10.800;2022-11-14T08:23:00;18.00;;;8.10;;
20138;SDS011;10230;51.502;10.800;2022-11-14T08:25:27;19.90;;;8.00;;
20138;SDS011;10230;51.502;10.800;2022-11-14T08:27:53;24.77;;;9.57;;
20138;SDS011;10230;51.502;10.800;2022-11-14T08:30:19;28.20;;;9.17;;
20138;SDS011;10230;51.502;10.800;2022-11-14T08:32:44;17.60;;;7.33;;
20138;SDS011;10230;51.502;10.800;2022-11-14T08:35:10;15.93;;;7.70;;
20138;SDS011;10230;51.502;10.800;2022-11-14T08:37:36;16.83;;;7.83;;
20138;SDS011;10230;51.502;10.800;2022-11-14T08:40:01;15.80;;;7.70;;
20138;SDS011;10230;51.502;10.800;2022-11-14T08:42:27;16.63;;;9.03;;
20138;SDS011;10230;51.502;10.800;2022-11-14T08:44:53;14.10;;;7.70;;
20138;SDS011;10230;51.502;10.800;2022-11-14T08:47:20;19.90;;;8.40;;
20138;SDS011;10230;51.502;10.800;2022-11-14T08:49:46;21.27;;;9.43;;
20138;SDS011;10230;51.502;10.800;2022-11-14T08:52:12;19.13;;;8.57;;
20138;SDS011;10230;51.502;10.800;2022-11-14T08:54:38;27.40;;;10.57;;
20138;SDS011;10230;51.502;10.800;2022-11-14T08:57:04;21.67;;;9.00;;
20138;SDS011;10230;51.502;10.800;2022-11-14T08:59:30;21.57;;;10.20;;
20138;SDS011;10230;51.502;10.800;2022-11-14T09:01:56;21.90;;;10.07;;
20138;SDS011;10230;51.502;10.800;2022-11-14T09:04:22;20.33;;;10.03;;
20138;SDS011;10230;51.502;10.800;2022-11-14T09:06:48;19.83;;;9.23;;
20138;SDS011;10230;51.502;10.800;2022-11-14T09:09:14;16.70;;;9.93;;
20138;SDS011;10230;51.502;10.800;2022-11-14T09:11:40;20.60;;;10.97;;
20138;SDS011;10230;51.502;10.800;2022-11-14T09:14:05;21.47;;;11.57;;
20138;SDS011;10230;51.502;10.800;2022-11-14T09:16:31;21.13;;;11.27;;
20138;SDS011;10230;51.502;10.800;2022-11-14T09:18:58;19.00;;;9.73;;
20138;SDS011;10230;51.502;10.800;2022-11-14T09:21:24;21.17;;;11.33;;
20138;SDS011;10230;51.502;10.800;2022-11-14T09:23:50;21.47;;;12.33;;
20138;SDS011;10230;51.502;10.800;2022-11-14T09:26:16;19.53;;;10.90;;
20138;SDS011;10230;51.502;10.800;2022-11-14T09:28:42;22.97;;;11.57;;
20138;SDS011;10230;51.502;10.800;2022-11-14T09:31:10;20.80;;;9.67;;
20138;SDS011;10230;51.502;10.800;2022-11-14T09:33:36;15.70;;;8.97;;
20138;SDS011;10230;51.502;10.800;2022-11-14T09:36:03;17.23;;;9.90;;
20138;SDS011;10230;51.502;10.800;2022-11-14T09:38:30;16.00;;;9.60;;
20138;SDS011;10230;51.502;10.800;2022-11-14T09:46:44;18.53;;;9.13;;
20138;SDS011;10230;51.502;10.800;2022-11-14T09:49:39;24.60;;;9.63;;
20138;SDS011;10230;51.502;10.800;2022-11-14T09:52:10;17.20;;;9.67;;
20138;SDS011;10230;51.502;10.800;2022-11-14T09:54:54;19.97;;;10.53;;
20138;SDS011;10230;51.502;10.800;2022-11-14T09:57:22;15.57;;;9.63;;
20138;SDS011;10230;51.502;10.800;2022-11-14T09:59:49;17.07;;;9.50;;
20138;SDS011;10230;51.502;10.800;2022-11-14T10:12:53;19.47;;;8.93;;
20138;SDS011;10230;51.502;10.800;2022-11-14T10:15:33;17.93;;;9.20;;
20138;SDS011;10230;51.502;10.800;2022-11-14T10:20:59;15.37;;;9.17;;
20138;SDS011;10230;51.502;10.800;2022-11-14T10:26:35;19.63;;;10.83;;
20138;SDS011;10230;51.502;10.800;2022-11-14T10:32:11;14.40;;;9.63;;
20138;SDS011;10230;51.502;10.800;2022-11-14T10:34:47;13.93;;;8.80;;
20138;SDS011;10230;51.502;10.800;2022-11-14T10:37:19;13.70;;;9.10;;
20138;SDS011;10230;51.502;10.800;2022-11-14T10:40:15;16.67;;;10.33;;
20138;SDS011;10230;51.502;10.800;2022-11-14T10:42:42;15.10;;;9.07;;
20138;SDS011;10230;51.502;10.800;2022-11-14T10:47:36;15.67;;;8.97;;
20138;SDS011;10230;51.502;10.800;2022-11-14T10:50:13;14.60;;;9.17;;
20138;SDS011;10230;51.502;10.800;2022-11-14T10:52:40;15.77;;;9.43;;
20138;SDS011;10230;51.502;10.800;2022-11-14T10:55:17;14.10;;;9.07;;
20138;SDS011;10230;51.502;10.800;2022-11-14T10:57:46;13.60;;;9.10;;
20138;SDS011;10230;51.502;10.800;2022-11-14T11:00:16;14.83;;;8.97;;
20138;SDS011;10230;51.502;10.800;2022-11-14T11:02:52;12.50;;;8.17;;
20138;SDS011;10230;51.502;10.800;2022-11-14T11:05:19;16.37;;;9.73;;
20138;SDS011;10230;51.502;10.800;2022-11-14T11:07:46;13.93;;;8.73;;
20138;SDS011;10230;51.502;10.800;2022-11-14T11:10:31;13.77;;;8.87;;
20138;SDS011;10230;51.502;10.800;2022-11-14T11:13:27;13.57;;;9.10;;
20138;SDS011;10230;51.502;10.800;2022-11-14T11:15:54;12.67;;;8.37;;
20138;SDS011;10230;51.502;10.800;2022-11-14T11:23:32;13.70;;;8.80;;
20138;SDS011;10230;51.502;10.800;2022-11-14T11:28:32;12.63;;;8.47;;
20138;SDS011;10230;51.502;10.800;2022-11-14T11:31:03;12.57;;;8.73;;
20138;SDS011;10230;51.502;10.800;2022-11-14T11:33:31;15.43;;;9.13;;
20138;SDS011;10230;51.502;10.800;2022-11-14T11:36:03;14.07;;;9.23;;
20138;SDS011;10230;51.502;10.800;2022-11-14T11:38:31;14.27;;;8.83;;
20138;SDS011;10230;51.502;10.800;2022-11-14T11:40:59;12.13;;;7.83;;
20138;SDS011;10230;51.502;10.800;2022-11-14T11:46:17;14.23;;;9.10;;
20138;SDS011;10230;51.502;10.800;2022-11-14T11:49:02;13.77;;;9.13;;
20138;SDS011;10230;51.502;10.800;2022-11-14T11:51:37;14.80;;;10.20;;
20138;SDS011;10230;51.502;10.800;2022-11-14T11:54:16;15.47;;;9.43;;
20138;SDS011;10230;51.502;10.800;2022-11-14T11:56:45;15.35;;;10.70;;
20138;SDS011;10230;51.502;10.800;2022-11-14T12:04:49;14.65;;;10.07;;
20138;SDS011;10230;51.502;10.800;2022-11-14T12:07:17;12.98;;;9.48;;
20138;SDS011;10230;51.502;10.800;2022-11-14T12:09:44;12.23;;;9.50;;
20138;SDS011;10230;51.502;10.800;2022-11-14T12:12:12;13.68;;;10.30;;
20138;SDS011;10230;51.502;10.800;2022-11-14T12:15:00;13.88;;;9.48;;
20138;SDS011;10230;51.502;10.800;2022-11-14T12:31:00;13.48;;;10.50;;
20138;SDS011;10230;51.502;10.800;2022-11-14T12:33:36;12.20;;;9.98;;
20138;SDS011;10230;51.502;10.800;2022-11-14T12:36:06;11.23;;;9.88;;
20138;SDS011;10230;51.502;10.800;2022-11-14T12:38:34;12.88;;;10.02;;
20138;SDS011;10230;51.502;10.800;2022-11-14T12:41:06;12.27;;;9.93;;
20138;SDS011;10230;51.502;10.800;2022-11-14T12:43:37;11.57;;;9.80;;
20138;SDS011;10230;51.502;10.800;2022-11-14T12:46:07;15.05;;;11.65;;
20138;SDS011;10230;51.502;10.800;2022-11-14T12:51:02;11.55;;;9.57;;
20138;SDS011;10230;51.502;10.800;2022-11-14T12:56:10;12.88;;;9.65;;
20138;SDS011;10230;51.502;10.800;2022-11-14T13:06:55;12.88;;;10.20;;
20138;SDS011;10230;51.502;10.800;2022-11-14T13:11:51;11.10;;;9.43;;
20138;SDS011;10230;51.502;10.800;2022-11-14T13:14:48;13.15;;;9.63;;
20138;SDS011;10230;51.502;10.800;2022-11-14T13:17:34;10.93;;;8.90;;
20138;SDS011;10230;51.502;10.800;2022-11-14T13:23:03;10.23;;;8.55;;
20138;SDS011;10230;51.502;10.800;2022-11-14T13:25:29;15.20;;;8.25;;
20138;SDS011;10230;51.502;10.800;2022-11-14T13:27:55;10.65;;;8.52;;
20138;SDS011;10230;51.502;10.800;2022-11-14T13:33:42;12.35;;;8.88;;
20138;SDS011;10230;51.502;10.800;2022-11-14T13:36:23;10.70;;;8.10;;
20138;SDS011;10230;51.502;10.800;2022-11-14T13:41:33;11.55;;;8.65;;
20138;SDS011;10230;51.502;10.800;2022-11-14T13:51:40;11.95;;;9.38;;
20138;SDS011;10230;51.502;10.800;2022-11-14T13:54:14;13.30;;;10.00;;
20138;SDS011;10230;51.502;10.800;2022-11-14T14:01:46;14.48;;;9.25;;
20138;SDS011;10230;51.502;10.800;2022-11-14T14:04:18;13.82;;;9.93;;
20138;SDS011;10230;51.502;10.800;2022-11-14T14:12:24;12.68;;;9.23;;
20138;SDS011;10230;51.502;10.800;2022-11-14T14:17:43;12.33;;;8.63;;
20138;SDS011;10230;51.502;10.800;2022-11-14T14:28:18;13.90;;;9.13;;
20138;SDS011;10230;51.502;10.800;2022-11-14T14:31:02;10.53;;;7.93;;
20138;SDS011;10230;51.502;10.800;2022-11-14T14:33:37;12.50;;;8.33;;
20138;SDS011;10230;51.502;10.800;2022-11-14T14:36:04;13.30;;;9.13;;
20138;SDS011;10230;51.502;10.800;2022-11-14T14:38:30;14.70;;;9.23;;
20138;SDS011;10230;51.502;10.800;2022-11-14T14:40:57;11.83;;;8.10;;
20138;SDS011;10230;51.502;10.800;2022-11-14T14:43:32;13.50;;;8.97;;
20138;SDS011;10230;51.502;10.800;2022-11-14T14:45:59;14.17;;;9.30;;
20138;SDS011;10230;51.502;10.800;2022-11-14T14:48:26;12.97;;;9.10;;
20138;SDS011;10230;51.502;10.800;2022-11-14T14:50:56;15.73;;;10.23;;
20138;SDS011;10230;51.502;10.800;2022-11-14T14:53:23;13.93;;;9.43;;
20138;SDS011;10230;51.502;10.800;2022-11-14T14:55:51;14.20;;;9.33;;
20138;SDS011;10230;51.502;10.800;2022-11-14T15:00:57;12.40;;;8.83;;
20138;SDS011;10230;51.502;10.800;2022-11-14T15:03:23;15.47;;;8.93;;
20138;SDS011;10230;51.502;10.800;2022-11-14T15:06:00;15.53;;;9.27;;
20138;SDS011;10230;51.502;10.800;2022-11-14T15:08:27;15.77;;;10.27;;
20138;SDS011;10230;51.502;10.800;2022-11-14T15:10:55;13.20;;;8.70;;
20138;SDS011;10230;51.502;10.800;2022-11-14T15:13:23;15.07;;;9.23;;
20138;SDS011;10230;51.502;10.800;2022-11-14T15:15:51;13.83;;;9.07;;
20138;SDS011;10230;51.502;10.800;2022-11-14T15:18:19;14.50;;;9.23;;
20138;SDS011;10230;51.502;10.800;2022-11-14T15:23:40;14.93;;;9.57;;
20138;SDS011;10230;51.502;10.800;2022-11-14T15:26:10;15.77;;;9.47;;
20138;SDS011;10230;51.502;10.800;2022-11-14T15:28:37;16.60;;;9.67;;
20138;SDS011;10230;51.502;10.800;2022-11-14T15:31:04;14.97;;;9.33;;
20138;SDS011;10230;51.502;10.800;2022-11-14T15:33:31;15.00;;;9.47;;
20138;SDS011;10230;51.502;10.800;2022-11-14T15:36:05;13.33;;;8.77;;
20138;SDS011;10230;51.502;10.800;2022-11-14T15:38:31;15.17;;;10.17;;
20138;SDS011;10230;51.502;10.800;2022-11-14T15:43:54;14.03;;;9.90;;
20138;SDS011;10230;51.502;10.800;2022-11-14T15:48:57;16.50;;;10.07;;
20138;SDS011;10230;51.502;10.800;2022-11-14T15:51:36;15.70;;;9.90;;
20138;SDS011;10230;51.502;10.800;2022-11-14T15:54:03;14.17;;;8.77;;
20138;SDS011;10230;51.502;10.800;2022-11-14T15:56:29;13.67;;;8.73;;
20138;SDS011;10230;51.502;10.800;2022-11-14T15:58:55;18.07;;;10.47;;
20138;SDS011;10230;51.502;10.800;2022-11-14T16:01:22;16.43;;;9.60;;
20138;SDS011;10230;51.502;10.800;2022-11-14T16:03:49;15.27;;;9.97;;
20138;SDS011;10230;51.502;10.800;2022-11-14T16:06:16;15.83;;;9.00;;
20138;SDS011;10230;51.502;10.800;2022-11-14T16:08:42;14.03;;;7.60;;
20138;SDS011;10230;51.502;10.800;2022-11-14T16:11:08;15.80;;;8.73;;
20138;SDS011;10230;51.502;10.800;2022-11-14T16:13:34;17.17;;;10.30;;
20138;SDS011;10230;51.502;10.800;2022-11-14T16:16:00;15.07;;;8.47;;
20138;SDS011;10230;51.502;10.800;2022-11-14T16:18:26;16.87;;;9.23;;
20138;SDS011;10230;51.502;10.800;2022-11-14T16:20:52;16.37;;;8.27;;
20138;SDS011;10230;51.502;10.800;2022-11-14T16:23:22;18.40;;;8.87;;
20138;SDS011;10230;51.502;10.800;2022-11-14T16:25:48;22.07;;;9.60;;
20138;SDS011;10230;51.502;10.800;2022-11-14T16:28:14;19.80;;;10.10;;
20138;SDS011;10230;51.502;10.800;2022-11-14T16:30:40;18.40;;;9.97;;
20138;SDS011;10230;51.502;10.800;2022-11-14T16:33:07;19.60;;;8.57;;
20138;SDS011;10230;51.502;10.800;2022-11-14T16:35:33;16.67;;;9.20;;